Time;durP1;ratioP1;P1;durP2;ratioP2;P2;SDS_P1;SDS_P2;PMS_P1;PMS_P2;Temp;Humidity;BMP_temperature;BMP_pressure;BME280_temperature;BME280_humidity;BME280_pressure;Samples;Min_cycle;Max_cycle;Signal;HPM_P1;HPM_P2
2021/12/07 00:01:23;;;;;;;8.30;5.65;;;16.90;43.30;;;;;;5094730;28;20193;-64
2021/12/07 00:03:50;;;;;;;9.35;6.13;;;16.90;43.30;;;;;;5094543;28;20197;-66
2021/12/07 00:06:17;;;;;;;8.45;5.75;;;16.90;43.20;;;;;;5076054;28;20218;-66
2021/12/07 00:08:44;;;;;;;9.23;5.85;;;16.90;43.30;;;;;;5076258;28;20631;-66
2021/12/07 00:11:12;;;;;;;8.48;5.80;;;16.90;43.30;;;;;;5075985;28;20194;-66
2021/12/07 00:13:39;;;;;;;8.15;5.68;;;16.80;43.20;;;;;;5094267;28;20190;-66
2021/12/07 00:16:08;;;;;;;6.32;5.10;;;16.80;43.20;;;;;;5093994;28;20205;-66
2021/12/07 00:18:35;;;;;;;7.80;5.75;;;16.80;43.20;;;;;;5094204;28;20197;-66
2021/12/07 00:21:02;;;;;;;7.13;5.43;;;16.80;43.20;;;;;;5075951;28;20685;-66
2021/12/07 00:23:29;;;;;;;6.95;5.45;;;16.80;43.30;;;;;;5075797;28;20560;-66
2021/12/07 00:25:56;;;;;;;7.70;5.47;;;16.70;43.20;;;;;;5076269;28;20241;-66
2021/12/07 00:28:24;;;;;;;6.60;5.13;;;16.70;43.20;;;;;;5094209;28;20186;-66
2021/12/07 00:30:52;;;;;;;7.43;5.22;;;16.70;43.20;;;;;;5093275;28;20662;-67
2021/12/07 00:33:32;;;;;;;7.45;5.32;;;16.70;43.20;;;;;;5077693;28;20625;-66
2021/12/07 00:35:59;;;;;;;6.47;5.05;;;16.70;43.30;;;;;;5075734;28;20223;-67
2021/12/07 00:38:26;;;;;;;7.05;5.38;;;16.70;43.30;;;;;;5075619;28;20208;-67
2021/12/07 00:40:54;;;;;;;7.20;5.40;;;16.70;43.20;;;;;;5076008;28;20225;-66
2021/12/07 00:43:21;;;;;;;6.03;5.13;;;16.60;43.30;;;;;;5093963;28;20190;-67
2021/12/07 00:45:51;;;;;;;5.65;5.00;;;16.70;43.40;;;;;;5075377;28;20214;-67
2021/12/07 00:48:19;;;;;;;7.13;5.13;;;16.70;43.50;;;;;;5075598;28;20228;-66
2021/12/07 00:50:48;;;;;;;6.32;4.82;;;16.60;43.40;;;;;;5075231;28;20260;-65
2021/12/07 00:53:15;;;;;;;6.28;5.03;;;16.60;43.60;;;;;;5075300;28;20190;-66
2021/12/07 00:55:43;;;;;;;5.18;4.60;;;16.70;43.30;;;;;;5093343;28;20704;-66
2021/12/07 00:58:16;;;;;;;7.10;5.22;;;16.60;43.30;;;;;;5075140;28;20198;-66
2021/12/07 01:00:45;;;;;;;6.30;4.97;;;16.60;43.50;;;;;;5075123;28;20775;-66
2021/12/07 01:03:14;;;;;;;8.32;5.07;;;16.60;43.60;;;;;;5075166;28;20190;-66
2021/12/07 01:05:47;;;;;;;6.75;4.55;;;16.60;44.20;;;;;;5075081;28;20214;-66
2021/12/07 01:08:24;;;;;;;5.38;4.32;;;16.60;43.60;;;;;;5075150;28;20204;-66
2021/12/07 01:24:41;;;;;;;7.15;4.22;;;16.60;43.70;;;;;;5074736;28;20195;-66
2021/12/07 01:27:08;;;;;;;5.20;4.10;;;16.60;43.80;;;;;;5074844;28;20210;-66
2021/12/07 01:29:36;;;;;;;6.55;4.75;;;16.50;43.80;;;;;;5074944;28;20198;-66
2021/12/07 01:32:13;;;;;;;5.05;4.20;;;16.50;43.60;;;;;;5074911;28;20289;-67
2021/12/07 01:37:36;;;;;;;4.63;3.88;;;16.50;43.80;;;;;;5074723;23;20224;-68
2021/12/07 01:40:30;;;;;;;6.00;4.00;;;16.40;43.80;;;;;;5054665;28;20198;-68
2021/12/07 01:43:30;;;;;;;4.93;3.80;;;16.50;43.90;;;;;;5058673;28;20244;-68
2021/12/07 01:51:45;;;;;;;4.88;3.92;;;16.50;43.90;;;;;;5097101;28;20626;-68
2021/12/07 01:59:47;;;;;;;5.45;4.40;;;16.40;43.80;;;;;;5079045;28;20535;-68
2021/12/07 02:02:15;;;;;;;3.88;3.42;;;16.40;44.30;;;;;;5078925;28;20778;-68
2021/12/07 02:04:42;;;;;;;4.90;3.92;;;16.40;44.20;;;;;;5078722;28;20194;-68
2021/12/07 02:07:13;;;;;;;5.40;3.85;;;16.40;44.70;;;;;;5078293;28;20228;-68
2021/12/07 02:09:49;;;;;;;5.75;3.95;;;16.30;44.10;;;;;;5078589;28;20197;-68
2021/12/07 02:12:16;;;;;;;4.25;3.35;;;16.30;44.60;;;;;;5078622;28;20197;-68
2021/12/07 02:14:43;;;;;;;5.20;3.75;;;16.30;44.20;;;;;;5078570;28;20190;-68
2021/12/07 02:17:12;;;;;;;4.97;3.88;;;16.30;44.90;;;;;;5078185;28;20313;-68
2021/12/07 02:19:40;;;;;;;4.00;3.70;;;16.30;44.30;;;;;;5078511;28;20218;-68
2021/12/07 02:22:10;;;;;;;4.40;3.70;;;16.30;44.40;;;;;;5096189;28;20187;-68
2021/12/07 02:24:42;;;;;;;3.92;3.53;;;16.30;44.40;;;;;;5078724;28;20198;-68
2021/12/07 02:27:09;;;;;;;3.83;3.42;;;16.30;44.40;;;;;;5077851;28;20218;-68
2021/12/07 02:29:36;;;;;;;4.20;3.80;;;16.30;44.60;;;;;;5078052;28;20648;-68
2021/12/07 02:32:04;;;;;;;4.35;3.55;;;16.20;44.50;;;;;;5077967;28;20251;-68
2021/12/07 02:34:31;;;;;;;3.85;3.45;;;16.20;44.40;;;;;;5077962;28;20205;-68
2021/12/07 02:37:00;;;;;;;3.90;3.47;;;16.20;44.50;;;;;;5077856;28;20246;-68
2021/12/07 02:39:32;;;;;;;4.03;3.63;;;16.20;44.40;;;;;;5077927;28;20222;-68
2021/12/07 02:42:01;;;;;;;3.65;3.30;;;16.20;44.40;;;;;;5077695;28;20735;-68
2021/12/07 02:44:29;;;;;;;4.57;3.88;;;16.20;44.50;;;;;;5077751;28;20185;-68
2021/12/07 02:46:56;;;;;;;5.63;3.55;;;16.20;44.50;;;;;;5077510;28;20218;-67
2021/12/07 02:49:23;;;;;;;3.88;3.42;;;16.20;44.40;;;;;;5077678;28;20265;-68
2021/12/07 02:51:51;;;;;;;3.70;3.40;;;16.20;44.50;;;;;;5077663;28;20218;-68
2021/12/07 02:54:20;;;;;;;3.58;3.03;;;16.20;45.20;;;;;;5076394;28;20289;-68
2021/12/07 02:56:50;;;;;;;3.92;3.00;;;16.20;44.60;;;;;;5077377;28;20646;-68
2021/12/07 02:59:19;;;;;;;3.50;3.20;;;16.20;44.70;;;;;;5077512;28;20239;-68
2021/12/07 03:01:53;;;;;;;4.22;3.20;;;16.20;44.70;;;;;;5077425;28;20198;-67
2021/12/07 03:04:24;;;;;;;3.80;3.20;;;16.20;44.60;;;;;;5077294;28;20232;-68
2021/12/07 03:07:01;;;;;;;4.43;3.35;;;16.20;44.70;;;;;;5077453;28;20225;-67
2021/12/07 03:26:07;;;;;;;4.60;3.22;;;16.20;44.80;;;;;;5076761;28;20213;-68
2021/12/07 03:28:40;;;;;;;2.80;2.60;;;16.10;44.70;;;;;;5076979;28;20231;-68
2021/12/07 03:31:07;;;;;;;5.32;3.20;;;16.10;44.70;;;;;;5077002;28;20215;-69
2021/12/07 03:33:35;;;;;;;3.08;2.78;;;16.10;44.60;;;;;;5076853;28;20190;-68
2021/12/07 03:36:02;;;;;;;3.35;3.05;;;16.10;45.20;;;;;;5076556;28;20286;-68
2021/12/07 03:38:29;;;;;;;3.40;3.10;;;16.20;44.60;;;;;;5094882;28;20204;-68
2021/12/07 03:40:57;;;;;;;2.78;2.53;;;16.10;44.50;;;;;;5076658;28;20194;-68
2021/12/07 03:43:24;;;;;;;3.05;2.75;;;16.10;44.60;;;;;;5094702;28;20182;-68
2021/12/07 03:45:53;;;;;;;3.03;2.72;;;16.10;44.60;;;;;;5076479;28;20210;-68
2021/12/07 03:48:22;;;;;;;3.20;2.90;;;16.10;44.50;;;;;;5076587;28;20221;-68
2021/12/07 03:50:49;;;;;;;2.83;2.63;;;16.10;44.60;;;;;;5094580;28;20194;-68
2021/12/07 03:53:16;;;;;;;3.65;2.83;;;16.10;44.60;;;;;;5076708;28;20277;-68
2021/12/07 03:55:44;;;;;;;2.80;2.50;;;16.10;44.70;;;;;;5076368;28;20213;-68
2021/12/07 03:58:11;;;;;;;3.50;2.60;;;16.10;44.70;;;;;;5076166;28;20190;-68
2021/12/07 04:00:40;;;;;;;2.83;2.58;;;16.10;44.70;;;;;;5076247;28;20196;-68
2021/12/07 04:03:11;;;;;;;3.67;2.92;;;16.10;44.70;;;;;;5076258;28;20204;-68
2021/12/07 04:05:44;;;;;;;3.10;2.80;;;16.10;44.70;;;;;;5075767;28;20198;-68
2021/12/07 04:08:13;;;;;;;3.40;2.70;;;16.10;44.70;;;;;;5076028;28;20209;-68
2021/12/07 04:10:41;;;;;;;3.78;2.83;;;16.00;44.60;;;;;;5076196;28;20198;-68
2021/12/07 04:13:08;;;;;;;3.00;2.78;;;16.10;44.70;;;;;;5075902;28;20228;-68
2021/12/07 04:15:35;;;;;;;3.03;2.72;;;16.10;44.80;;;;;;5094036;28;20531;-68
2021/12/07 04:18:02;;;;;;;2.60;2.40;;;16.00;45.50;;;;;;5076045;28;20196;-68
2021/12/07 04:20:31;;;;;;;2.42;2.22;;;16.00;44.90;;;;;;5075810;28;20185;-68
2021/12/07 04:22:58;;;;;;;2.92;2.63;;;16.00;44.80;;;;;;5075705;28;20197;-68
2021/12/07 04:25:25;;;;;;;2.88;2.58;;;16.00;44.90;;;;;;5094110;28;20672;-68
2021/12/07 04:27:52;;;;;;;2.80;2.60;;;16.00;44.90;;;;;;5075923;28;20704;-68
2021/12/07 04:30:20;;;;;;;2.83;2.63;;;16.00;44.90;;;;;;5075781;28;20194;-69
2021/12/07 04:32:47;;;;;;;2.53;2.33;;;16.00;44.80;;;;;;5075905;28;20198;-69
2021/12/07 04:35:15;;;;;;;3.08;2.30;;;16.10;44.90;;;;;;5075908;28;20566;-68
2021/12/07 04:37:43;;;;;;;2.50;2.30;;;16.10;44.80;;;;;;5075521;28;20214;-68
2021/12/07 04:40:12;;;;;;;3.15;2.58;;;16.10;44.70;;;;;;5075464;28;20256;-69
2021/12/07 04:42:39;;;;;;;2.50;2.30;;;16.10;44.70;;;;;;5075454;28;20267;-69
2021/12/07 04:45:10;;;;;;;2.60;2.40;;;16.10;44.70;;;;;;5093590;28;20218;-68
2021/12/07 04:47:48;;;;;;;2.88;2.33;;;16.20;44.50;;;;;;5075311;28;20237;-69
2021/12/07 04:50:37;;;;;;;3.15;2.60;;;16.20;44.50;;;;;;5075295;28;20202;-69
2021/12/07 04:58:34;;;;;;;2.92;2.20;;;16.20;44.50;;;;;;5075129;28;20196;-68
2021/12/07 05:01:08;;;;;;;2.53;2.33;;;16.20;44.30;;;;;;5093287;28;20239;-68
2021/12/07 05:03:35;;;;;;;2.40;2.20;;;16.30;44.50;;;;;;5075220;28;20196;-68
2021/12/07 05:06:02;;;;;;;2.65;2.30;;;16.30;44.50;;;;;;5093371;28;20693;-68
2021/12/07 05:08:38;;;;;;;2.35;2.15;;;16.30;44.70;;;;;;5093085;28;20288;-68
2021/12/07 05:14:01;;;;;;;2.58;2.38;;;16.30;44.70;;;;;;5054777;28;20686;-69
2021/12/07 05:16:59;;;;;;;2.78;2.50;;;16.30;44.50;;;;;;5074329;28;20218;-69
2021/12/07 05:25:29;;;;;;;2.72;2.50;;;16.30;44.40;;;;;;5074982;28;20326;-69
2021/12/07 05:39:02;;;;;;;2.45;2.20;;;16.50;44.20;;;;;;5093796;28;20182;-68
2021/12/07 05:41:31;;;;;;;2.75;2.30;;;16.50;44.50;;;;;;5103429;22;20226;-68
2021/12/07 05:43:58;;;;;;;2.40;2.20;;;16.50;44.00;;;;;;5076173;28;20186;-68
2021/12/07 05:46:25;;;;;;;2.10;2.00;;;16.50;44.20;;;;;;5095450;28;20214;-68
2021/12/07 05:48:52;;;;;;;2.38;2.17;;;16.50;44.30;;;;;;5094352;28;20621;-66
2021/12/07 05:51:19;;;;;;;2.63;2.42;;;16.60;44.30;;;;;;5075565;28;20676;-66
2021/12/07 05:53:46;;;;;;;2.30;2.20;;;16.60;44.40;;;;;;5075175;28;20198;-66
2021/12/07 05:56:13;;;;;;;2.30;2.10;;;16.60;44.10;;;;;;5075213;28;20218;-66
2021/12/07 05:58:41;;;;;;;2.60;2.15;;;16.60;44.10;;;;;;5075195;28;20194;-66
2021/12/07 06:01:08;;;;;;;2.08;1.98;;;16.70;44.20;;;;;;5074447;28;20186;-66
2021/12/07 06:03:36;;;;;;;2.00;1.90;;;16.70;44.20;;;;;;5074464;28;20194;-66
2021/12/07 06:06:04;;;;;;;2.22;2.03;;;16.70;44.10;;;;;;5074770;28;20637;-65
2021/12/07 06:08:31;;;;;;;5.22;2.10;;;16.70;43.90;;;;;;5074753;28;20681;-66
2021/12/07 06:10:58;;;;;;;1.92;1.83;;;16.70;44.10;;;;;;5074474;28;20202;-65
2021/12/07 06:13:25;;;;;;;1.90;1.80;;;16.70;43.80;;;;;;5074606;28;20189;-65
2021/12/07 06:15:53;;;;;;;1.85;1.75;;;16.70;43.70;;;;;;5073994;28;20317;-65
2021/12/07 06:18:20;;;;;;;2.10;2.00;;;16.80;43.60;;;;;;5092841;28;20196;-68
2021/12/07 06:20:47;;;;;;;2.22;2.03;;;16.80;43.70;;;;;;5074276;28;20206;-65
2021/12/07 06:23:15;;;;;;;2.13;1.73;;;16.80;43.90;;;;;;5092398;28;20192;-66
2021/12/07 06:25:42;;;;;;;3.25;1.90;;;16.80;43.90;;;;;;5074485;28;20241;-66
2021/12/07 06:28:09;;;;;;;1.90;1.80;;;16.80;43.70;;;;;;5076836;28;20214;-66
2021/12/07 06:30:37;;;;;;;1.80;1.70;;;16.80;43.80;;;;;;5078336;28;20622;-66
2021/12/07 06:33:05;;;;;;;2.00;1.80;;;16.80;43.90;;;;;;5078184;28;20198;-67
2021/12/07 06:35:32;;;;;;;2.13;1.95;;;16.80;43.80;;;;;;5095889;28;20654;-66
2021/12/07 06:37:59;;;;;;;1.98;1.80;;;16.80;43.80;;;;;;5078163;28;20682;-66
2021/12/07 06:40:26;;;;;;;1.90;1.80;;;16.80;43.90;;;;;;5078042;28;20260;-66
2021/12/07 06:42:54;;;;;;;2.33;1.60;;;16.80;43.90;;;;;;5077904;28;20210;-66
2021/12/07 06:45:23;;;;;;;1.75;1.65;;;16.80;43.90;;;;;;5096254;28;20662;-66
2021/12/07 06:47:50;;;;;;;2.00;1.90;;;16.80;43.80;;;;;;5125129;22;20203;-65
2021/12/07 06:50:19;;;;;;;1.90;1.67;;;16.80;43.50;;;;;;5076863;28;20268;-66
2021/12/07 06:52:46;;;;;;;2.10;1.90;;;16.80;43.30;;;;;;5077585;28;20198;-66
2021/12/07 06:55:13;;;;;;;2.22;1.52;;;16.90;43.40;;;;;;5077811;28;20205;-66
2021/12/07 06:57:40;;;;;;;2.03;1.90;;;16.90;43.30;;;;;;5095964;28;20553;-67
2021/12/07 07:00:09;;;;;;;1.92;1.60;;;16.90;43.30;;;;;;5077812;28;20208;-67
2021/12/07 07:02:36;;;;;;;1.80;1.70;;;16.90;43.30;;;;;;5078020;28;20650;-67
2021/12/07 07:05:03;;;;;;;2.10;1.58;;;16.90;43.30;;;;;;5078050;28;20193;-66
2021/12/07 07:07:33;;;;;;;1.80;1.70;;;16.90;43.30;;;;;;5077707;28;20562;-66
2021/12/07 07:10:00;;;;;;;2.53;1.63;;;16.90;43.30;;;;;;5077674;28;20190;-67
2021/12/07 07:12:27;;;;;;;2.13;1.88;;;16.90;43.30;;;;;;5096013;28;20186;-66
2021/12/07 07:14:54;;;;;;;2.75;1.70;;;16.90;43.30;;;;;;5096351;28;20190;-67
2021/12/07 07:17:21;;;;;;;2.10;2.00;;;16.90;43.40;;;;;;5078451;28;20241;-67
2021/12/07 07:19:48;;;;;;;1.83;1.65;;;16.90;43.30;;;;;;5078511;28;20285;-67
2021/12/07 07:22:15;;;;;;;2.08;1.90;;;16.90;43.30;;;;;;5078329;28;20199;-67
2021/12/07 07:24:45;;;;;;;1.80;1.70;;;16.90;43.30;;;;;;5077807;28;20200;-67
2021/12/07 07:27:12;;;;;;;1.80;1.70;;;16.90;43.30;;;;;;5095928;28;20210;-67
2021/12/07 07:29:39;;;;;;;1.98;1.77;;;17.00;43.40;;;;;;5077377;28;20247;-67
2021/12/07 07:32:07;;;;;;;3.00;1.88;;;16.90;43.30;;;;;;5077586;28;20204;-68
2021/12/07 07:34:34;;;;;;;2.00;1.80;;;17.00;43.40;;;;;;5077729;28;20231;-67
2021/12/07 07:37:02;;;;;;;1.60;1.50;;;17.00;43.40;;;;;;5083365;22;20313;-68
2021/12/07 07:39:29;;;;;;;1.90;1.70;;;17.00;43.40;;;;;;5074699;28;20604;-68
2021/12/07 07:41:57;;;;;;;1.88;1.63;;;17.00;43.40;;;;;;5056865;28;20191;-68
2021/12/07 07:44:34;;;;;;;1.85;1.58;;;17.00;43.40;;;;;;5063314;28;20259;-68
2021/12/07 07:47:02;;;;;;;2.30;1.80;;;17.00;43.30;;;;;;5076808;28;20190;-68
2021/12/07 07:49:29;;;;;;;3.45;1.83;;;17.00;43.40;;;;;;5076878;28;20682;-69
2021/12/07 07:51:56;;;;;;;2.22;1.92;;;17.00;43.30;;;;;;5076793;28;20518;-68
2021/12/07 07:54:23;;;;;;;1.80;1.70;;;17.10;43.40;;;;;;5076782;28;20542;-68
2021/12/07 07:56:51;;;;;;;3.35;1.90;;;17.00;43.30;;;;;;5076691;28;20198;-69
2021/12/07 07:59:20;;;;;;;2.60;2.10;;;17.00;43.20;;;;;;5076565;28;20267;-68
2021/12/07 08:01:47;;;;;;;2.40;2.00;;;17.00;43.10;;;;;;5076508;28;20544;-69
2021/12/07 08:04:14;;;;;;;2.53;1.95;;;17.10;43.30;;;;;;5076377;28;20259;-68
2021/12/07 08:06:42;;;;;;;2.08;1.88;;;17.10;43.20;;;;;;5076240;28;20222;-68
2021/12/07 08:09:09;;;;;;;1.90;1.73;;;17.10;43.20;;;;;;5076275;28;20596;-68
2021/12/07 08:11:36;;;;;;;1.83;1.70;;;17.10;43.10;;;;;;5094891;28;20520;-68
2021/12/07 08:14:04;;;;;;;2.20;1.90;;;17.10;43.20;;;;;;5076456;28;20259;-69
2021/12/07 08:16:32;;;;;;;1.80;1.70;;;17.10;43.20;;;;;;5094582;28;20242;-68
2021/12/07 08:19:00;;;;;;;1.98;1.77;;;17.20;43.20;;;;;;5076088;28;20262;-68
2021/12/07 08:21:29;;;;;;;2.00;1.80;;;17.10;43.10;;;;;;5076184;28;20217;-68
2021/12/07 08:23:57;;;;;;;1.83;1.73;;;17.10;43.10;;;;;;5076242;28;20247;-69
2021/12/07 08:26:24;;;;;;;2.00;1.77;;;17.10;43.00;;;;;;5095265;28;20195;-69
2021/12/07 08:28:52;;;;;;;2.10;2.00;;;17.20;42.90;;;;;;5076208;28;20712;-69
2021/12/07 08:31:19;;;;;;;3.40;1.50;;;17.20;43.00;;;;;;5076039;28;20194;-69
2021/12/07 08:33:48;;;;;;;1.92;1.70;;;17.20;43.10;;;;;;5094662;28;20710;-69
2021/12/07 08:36:15;;;;;;;1.83;1.73;;;17.20;42.80;;;;;;5094140;28;20784;-69
2021/12/07 08:38:42;;;;;;;2.40;1.60;;;17.30;42.90;;;;;;5079359;28;20638;-69
2021/12/07 08:41:10;;;;;;;1.85;1.75;;;17.30;42.70;;;;;;5076539;28;20213;-69
2021/12/07 08:43:40;;;;;;;2.25;1.60;;;17.30;42.80;;;;;;5076716;28;20186;-69
2021/12/07 08:46:08;;;;;;;1.90;1.80;;;17.30;42.70;;;;;;5076305;28;20233;-69
2021/12/07 08:48:35;;;;;;;2.00;1.77;;;17.40;42.70;;;;;;5076382;28;20217;-69
2021/12/07 08:51:04;;;;;;;1.95;1.75;;;17.30;42.50;;;;;;5075829;28;20194;-69
2021/12/07 08:53:32;;;;;;;1.88;1.67;;;17.30;42.60;;;;;;5076608;28;20213;-69
2021/12/07 09:01:30;;;;;;;1.90;1.80;;;17.40;42.80;;;;;;5076252;28;20194;-69
2021/12/07 09:03:58;;;;;;;2.60;1.80;;;17.40;42.80;;;;;;5095346;28;20190;-69
2021/12/07 09:06:27;;;;;;;1.77;1.67;;;17.40;42.80;;;;;;5077392;28;20202;-69
2021/12/07 09:08:54;;;;;;;2.15;2.05;;;17.40;42.70;;;;;;5078695;28;20214;-69
2021/12/07 09:11:22;;;;;;;1.83;1.70;;;17.40;42.80;;;;;;5078093;28;20228;-69
2021/12/07 09:13:50;;;;;;;2.33;2.10;;;17.40;42.80;;;;;;5078886;28;20194;-69
2021/12/07 09:16:20;;;;;;;3.08;2.00;;;17.50;42.70;;;;;;5078283;28;20252;-69
2021/12/07 09:18:48;;;;;;;2.13;1.92;;;17.50;42.80;;;;;;5076955;28;20216;-69
2021/12/07 09:21:15;;;;;;;1.98;1.70;;;17.50;42.60;;;;;;5095579;28;20277;-69
2021/12/07 09:23:45;;;;;;;1.85;1.70;;;17.50;42.60;;;;;;5077816;28;20201;-69
2021/12/07 09:26:12;;;;;;;2.40;2.15;;;17.50;42.70;;;;;;5077748;28;20210;-69
2021/12/07 09:28:40;;;;;;;2.00;1.90;;;17.50;42.80;;;;;;5076866;28;20217;-69
2021/12/07 09:31:07;;;;;;;2.67;1.90;;;17.50;42.80;;;;;;5096191;28;20281;-69
2021/12/07 09:33:35;;;;;;;2.50;1.88;;;17.60;42.80;;;;;;5078839;28;20202;-69
2021/12/07 09:36:02;;;;;;;1.90;1.80;;;17.60;42.80;;;;;;5095613;28;20217;-69
2021/12/07 09:38:30;;;;;;;2.13;2.03;;;17.60;42.80;;;;;;5094445;28;20178;-70
2021/12/07 09:40:58;;;;;;;3.75;2.20;;;17.70;43.40;;;;;;5075879;28;20292;-69
2021/12/07 09:43:25;;;;;;;2.22;1.80;;;17.70;42.70;;;;;;5093739;28;20182;-69
2021/12/07 09:45:52;;;;;;;2.15;1.70;;;17.70;42.60;;;;;;5093510;28;20214;-69
2021/12/07 09:48:20;;;;;;;2.20;2.00;;;17.80;42.50;;;;;;5093313;28;20205;-69
2021/12/07 09:50:49;;;;;;;2.42;1.95;;;17.80;42.30;;;;;;5075366;28;20190;-69
2021/12/07 09:53:17;;;;;;;2.00;1.80;;;17.80;42.90;;;;;;5093315;28;20662;-69
2021/12/07 09:55:44;;;;;;;2.08;1.80;;;17.90;42.20;;;;;;5075250;28;20214;-69
2021/12/07 09:58:13;;;;;;;1.98;1.77;;;17.90;42.20;;;;;;5075351;28;20256;-69
2021/12/07 10:00:41;;;;;;;2.50;1.75;;;17.90;42.10;;;;;;5094302;28;20661;-69
2021/12/07 10:03:08;;;;;;;3.20;1.67;;;18.00;42.20;;;;;;5096093;28;20197;-69
2021/12/07 10:05:35;;;;;;;2.10;1.80;;;18.00;42.10;;;;;;5097608;28;20263;-69
2021/12/07 10:08:03;;;;;;;1.85;1.70;;;18.00;41.90;;;;;;5079291;28;20201;-69
2021/12/07 10:10:32;;;;;;;1.70;1.42;;;18.10;41.90;;;;;;5097442;28;20194;-69
2021/12/07 10:12:59;;;;;;;2.13;1.50;;;18.10;41.90;;;;;;5078901;28;20296;-69
2021/12/07 10:15:28;;;;;;;2.15;1.60;;;18.10;41.70;;;;;;5097691;28;20214;-69
2021/12/07 10:18:02;;;;;;;1.73;1.60;;;18.10;41.50;;;;;;5097067;28;20194;-69
2021/12/07 10:20:37;;;;;;;1.80;1.70;;;18.10;41.50;;;;;;5078594;28;20215;-69
2021/12/07 10:23:23;;;;;;;1.67;1.50;;;18.10;41.40;;;;;;5079082;28;20197;-69
2021/12/07 10:25:52;;;;;;;3.22;1.90;;;18.10;41.30;;;;;;5096994;28;20205;-69
2021/12/07 10:28:25;;;;;;;2.45;1.52;;;18.10;41.30;;;;;;5078721;28;20194;-69
2021/12/07 10:30:54;;;;;;;1.90;1.70;;;18.10;41.40;;;;;;5078890;28;20225;-69
2021/12/07 10:33:31;;;;;;;1.80;1.50;;;18.10;41.30;;;;;;5078681;28;20657;-69
2021/12/07 10:36:09;;;;;;;1.83;1.63;;;18.20;41.40;;;;;;5078570;28;20704;-69
2021/12/07 10:38:37;;;;;;;2.30;1.83;;;18.20;41.20;;;;;;5078523;28;20220;-69
2021/12/07 10:41:05;;;;;;;1.98;1.60;;;18.20;41.00;;;;;;5096740;28;20251;-69
2021/12/07 10:43:49;;;;;;;1.83;1.60;;;18.20;41.10;;;;;;5097047;28;20535;-69
2021/12/07 10:46:36;;;;;;;2.00;1.73;;;18.30;41.10;;;;;;5097254;28;20678;-69
2021/12/07 10:49:29;;;;;;;2.38;1.70;;;18.30;41.00;;;;;;5078928;28;20247;-69
2021/12/07 10:52:15;;;;;;;2.10;1.88;;;18.40;41.00;;;;;;5096939;28;20286;-69
2021/12/07 10:54:46;;;;;;;2.58;1.52;;;18.40;40.60;;;;;;5078328;28;20253;-69
2021/12/07 10:57:15;;;;;;;2.08;1.80;;;18.40;40.90;;;;;;5096478;28;20210;-69
2021/12/07 10:59:50;;;;;;;1.95;1.80;;;18.40;40.70;;;;;;5096415;28;20528;-69
2021/12/07 11:02:18;;;;;;;2.33;1.50;;;18.50;40.60;;;;;;5078453;28;20288;-69
2021/12/07 11:04:46;;;;;;;2.83;1.80;;;18.50;40.60;;;;;;5078320;28;20637;-69
2021/12/07 11:07:17;;;;;;;1.70;1.60;;;18.50;40.50;;;;;;5078698;28;20212;-69
2021/12/07 11:09:50;;;;;;;2.67;1.60;;;18.50;40.80;;;;;;5095590;28;20248;-69
2021/12/07 11:12:19;;;;;;;1.92;1.70;;;18.50;40.50;;;;;;5095555;28;20232;-69
2021/12/07 11:14:50;;;;;;;2.70;1.58;;;18.50;40.40;;;;;;5094588;28;20214;-69
2021/12/07 11:17:21;;;;;;;2.53;1.70;;;18.50;40.30;;;;;;5077198;28;20233;-69
2021/12/07 11:19:48;;;;;;;2.28;1.70;;;18.50;40.30;;;;;;5095447;28;20260;-69
2021/12/07 11:22:16;;;;;;;2.55;1.70;;;18.50;40.40;;;;;;5077116;28;20211;-69
2021/12/07 11:24:44;;;;;;;4.50;1.83;;;18.50;40.70;;;;;;5095545;28;20248;-69
2021/12/07 11:30:01;;;;;;;1.90;1.50;;;18.50;40.10;;;;;;5076738;28;20625;-69
2021/12/07 11:32:29;;;;;;;1.90;1.70;;;18.50;39.90;;;;;;5076913;28;20225;-69
2021/12/07 11:34:57;;;;;;;2.38;1.70;;;18.60;39.80;;;;;;5095448;28;20222;-69
2021/12/07 11:37:24;;;;;;;1.60;1.50;;;18.60;40.10;;;;;;5094894;28;20677;-69
2021/12/07 11:39:53;;;;;;;1.70;1.60;;;18.60;40.10;;;;;;5077602;28;20194;-69
2021/12/07 11:42:21;;;;;;;2.47;1.42;;;18.70;40.20;;;;;;5077657;28;20233;-69
2021/12/07 11:44:50;;;;;;;2.05;1.75;;;18.70;40.30;;;;;;5077396;28;20227;-69
2021/12/07 11:47:17;;;;;;;2.58;1.63;;;18.80;40.20;;;;;;5077307;28;20202;-69
2021/12/07 11:49:45;;;;;;;1.83;1.70;;;18.90;40.10;;;;;;5076689;28;20237;-69
2021/12/07 11:52:12;;;;;;;2.55;1.60;;;18.90;39.80;;;;;;5076495;28;20216;-69
2021/12/07 11:54:41;;;;;;;2.33;1.70;;;19.00;39.80;;;;;;5094334;28;20216;-69
2021/12/07 11:57:10;;;;;;;2.05;1.73;;;19.00;39.70;;;;;;5076396;28;20209;-69
2021/12/07 11:59:37;;;;;;;1.70;1.60;;;19.00;39.60;;;;;;5076311;28;20194;-69
2021/12/07 12:02:04;;;;;;;2.70;1.67;;;19.00;40.10;;;;;;5076555;28;20217;-69
2021/12/07 12:04:32;;;;;;;2.10;1.80;;;19.00;39.80;;;;;;5076440;28;20222;-69
2021/12/07 12:07:01;;;;;;;2.25;1.80;;;19.00;39.70;;;;;;5094694;28;20281;-69
2021/12/07 12:09:30;;;;;;;1.70;1.60;;;18.90;40.10;;;;;;5094508;28;20251;-69
2021/12/07 12:12:03;;;;;;;1.60;1.50;;;18.90;39.70;;;;;;5076239;28;20225;-69
2021/12/07 12:14:47;;;;;;;2.55;1.50;;;18.90;39.40;;;;;;5076219;28;20225;-70
2021/12/07 12:17:17;;;;;;;2.33;1.65;;;18.90;39.90;;;;;;5119700;22;20316;-69
2021/12/07 12:19:55;;;;;;;2.22;1.50;;;19.00;40.00;;;;;;5077597;28;20281;-68
2021/12/07 12:22:26;;;;;;;1.88;1.70;;;18.90;39.80;;;;;;5077700;28;20182;-69
2021/12/07 12:24:55;;;;;;;1.67;1.58;;;19.00;39.80;;;;;;5095650;28;20747;-69
2021/12/07 12:27:25;;;;;;;2.10;1.90;;;19.00;39.80;;;;;;5077473;28;20544;-68
2021/12/07 12:29:54;;;;;;;1.73;1.48;;;19.00;39.80;;;;;;5077026;28;20359;-69
2021/12/07 12:32:27;;;;;;;1.70;1.60;;;19.00;39.90;;;;;;5077449;28;20212;-69
2021/12/07 12:34:55;;;;;;;1.80;1.70;;;19.00;40.30;;;;;;5095354;28;20652;-68
2021/12/07 12:37:25;;;;;;;2.38;1.73;;;19.00;39.60;;;;;;5077375;28;20555;-69
2021/12/07 12:39:53;;;;;;;1.90;1.73;;;19.00;39.60;;;;;;5095374;28;20247;-69
2021/12/07 12:42:32;;;;;;;2.83;1.70;;;19.10;39.60;;;;;;5095388;28;20199;-69
2021/12/07 12:45:03;;;;;;;1.50;1.40;;;19.10;39.80;;;;;;5077296;28;20194;-68
2021/12/07 12:47:31;;;;;;;1.60;1.50;;;19.10;40.00;;;;;;5095887;28;20210;-69
2021/12/07 12:50:11;;;;;;;1.83;1.73;;;19.00;40.10;;;;;;5077325;28;20745;-69
2021/12/07 12:52:41;;;;;;;2.50;1.65;;;19.00;39.70;;;;;;5095645;28;20715;-68
2021/12/07 12:55:43;;;;;;;3.53;1.70;;;19.00;39.80;;;;;;5078050;28;20186;-69
2021/12/07 12:58:13;;;;;;;1.67;1.58;;;19.00;40.00;;;;;;5081737;28;20304;-69
2021/12/07 13:01:18;;;;;;;2.25;1.52;;;19.00;39.80;;;;;;5078314;28;20189;-69
2021/12/07 13:04:07;;;;;;;1.98;1.60;;;19.00;39.80;;;;;;5078550;28;20190;-69
2021/12/07 13:07:05;;;;;;;1.67;1.58;;;19.00;39.70;;;;;;5078651;28;20218;-69
2021/12/07 13:09:41;;;;;;;1.67;1.55;;;19.00;40.00;;;;;;5078433;28;20221;-69
2021/12/07 13:12:14;;;;;;;2.58;1.52;;;19.00;39.80;;;;;;5079020;28;20224;-68
2021/12/07 13:14:44;;;;;;;1.85;1.40;;;18.90;39.90;;;;;;5080241;28;20296;-69
2021/12/07 13:17:18;;;;;;;3.08;1.55;;;18.90;39.90;;;;;;5078873;28;20626;-69
2021/12/07 13:20:12;;;;;;;1.85;1.65;;;18.90;40.00;;;;;;5078729;28;20606;-69
2021/12/07 13:22:41;;;;;;;2.40;1.73;;;18.90;39.80;;;;;;5078079;28;20251;-69
2021/12/07 13:25:11;;;;;;;2.90;2.10;;;18.90;40.10;;;;;;5077868;28;20201;-69
2021/12/07 13:27:39;;;;;;;1.88;1.67;;;18.90;39.90;;;;;;5095694;28;20213;-69
2021/12/07 13:30:07;;;;;;;1.60;1.50;;;18.90;40.00;;;;;;5077248;28;20684;-69
2021/12/07 13:32:34;;;;;;;1.80;1.67;;;18.90;39.80;;;;;;5076722;28;20251;-69
2021/12/07 13:35:02;;;;;;;1.95;1.60;;;18.90;40.10;;;;;;5094398;28;20190;-69
2021/12/07 13:37:50;;;;;;;1.95;1.70;;;18.90;39.90;;;;;;5075362;28;20214;-69
2021/12/07 13:40:20;;;;;;;2.22;1.67;;;18.90;40.00;;;;;;5071114;28;20643;-69
2021/12/07 13:42:48;;;;;;;1.67;1.58;;;18.90;39.90;;;;;;5093610;28;20197;-69
2021/12/07 13:45:17;;;;;;;1.70;1.60;;;18.90;39.80;;;;;;5075389;28;20189;-69
2021/12/07 13:47:45;;;;;;;2.53;1.88;;;18.90;39.60;;;;;;5075876;28;20229;-69
2021/12/07 13:50:14;;;;;;;1.55;1.45;;;18.90;39.50;;;;;;5076231;28;20218;-69
2021/12/07 13:52:43;;;;;;;1.60;1.50;;;18.90;39.40;;;;;;5094219;28;20273;-70
2021/12/07 13:55:11;;;;;;;1.70;1.60;;;18.90;39.60;;;;;;5076084;28;20224;-69
2021/12/07 13:57:40;;;;;;;1.60;1.50;;;18.90;39.40;;;;;;5076463;28;20217;-69
2021/12/07 14:00:14;;;;;;;1.50;1.40;;;18.90;39.60;;;;;;5074999;28;20618;-69
2021/12/07 14:02:42;;;;;;;1.65;1.55;;;18.90;39.60;;;;;;5074683;28;20232;-69
2021/12/07 14:05:13;;;;;;;1.52;1.42;;;18.80;39.80;;;;;;5085007;22;20299;-64
2021/12/07 14:07:41;;;;;;;1.67;1.50;;;18.80;40.00;;;;;;5054866;28;20191;-65
2021/12/07 14:10:13;;;;;;;1.95;1.70;;;18.80;40.30;;;;;;5072915;28;20682;-65
2021/12/07 14:12:42;;;;;;;1.65;1.52;;;18.80;40.00;;;;;;5073405;28;20183;-64
2021/12/07 14:15:15;;;;;;;1.65;1.55;;;18.80;40.00;;;;;;5082954;28;20608;-64
2021/12/07 14:17:43;;;;;;;2.00;1.50;;;18.80;39.90;;;;;;5092778;28;20544;-64
2021/12/07 14:20:11;;;;;;;1.60;1.50;;;18.80;40.10;;;;;;5092714;28;20265;-64